sensor_id;sensor_type;location;lat;lon;timestamp;P1;durP1;ratioP1;P2;durP2;ratioP2
3997;SDS011;61314;53.444;9.902;2023-12-22T00:00:38;28.20;;;5.35;;
3997;SDS011;61314;53.444;9.902;2023-12-22T00:03:05;22.90;;;4.97;;
3997;SDS011;61314;53.444;9.902;2023-12-22T00:05:32;35.35;;;6.38;;
3997;SDS011;61314;53.444;9.902;2023-12-22T00:07:59;26.30;;;6.03;;
3997;SDS011;61314;53.444;9.902;2023-12-22T00:10:27;50.55;;;6.07;;
3997;SDS011;61314;53.444;9.902;2023-12-22T00:12:54;33.53;;;5.78;;
3997;SDS011;61314;53.444;9.902;2023-12-22T00:15:21;30.95;;;5.88;;
3997;SDS011;61314;53.444;9.902;2023-12-22T00:17:48;30.42;;;7.00;;
3997;SDS011;61314;53.444;9.902;2023-12-22T00:20:16;21.60;;;5.10;;
3997;SDS011;61314;53.444;9.902;2023-12-22T00:22:43;26.00;;;4.57;;
3997;SDS011;61314;53.444;9.902;2023-12-22T00:25:10;24.73;;;5.68;;
3997;SDS011;61314;53.444;9.902;2023-12-22T00:27:38;30.15;;;3.92;;
3997;SDS011;61314;53.444;9.902;2023-12-22T00:30:05;33.60;;;4.75;;
3997;SDS011;61314;53.444;9.902;2023-12-22T00:32:32;38.38;;;6.70;;
3997;SDS011;61314;53.444;9.902;2023-12-22T00:34:59;32.72;;;4.10;;
3997;SDS011;61314;53.444;9.902;2023-12-22T00:37:27;14.05;;;4.30;;
3997;SDS011;61314;53.444;9.902;2023-12-22T00:39:54;31.90;;;5.15;;
3997;SDS011;61314;53.444;9.902;2023-12-22T00:42:23;23.75;;;5.00;;
3997;SDS011;61314;53.444;9.902;2023-12-22T00:44:50;22.85;;;4.50;;
3997;SDS011;61314;53.444;9.902;2023-12-22T00:47:17;19.45;;;4.65;;
3997;SDS011;61314;53.444;9.902;2023-12-22T00:49:45;31.80;;;4.68;;
3997;SDS011;61314;53.444;9.902;2023-12-22T00:52:12;29.55;;;4.35;;
3997;SDS011;61314;53.444;9.902;2023-12-22T00:54:39;15.65;;;4.00;;
3997;SDS011;61314;53.444;9.902;2023-12-22T00:57:06;24.88;;;3.80;;
3997;SDS011;61314;53.444;9.902;2023-12-22T00:59:33;22.83;;;3.40;;
3997;SDS011;61314;53.444;9.902;2023-12-22T01:02:00;9.23;;;2.30;;
3997;SDS011;61314;53.444;9.902;2023-12-22T01:04:27;14.68;;;3.30;;
3997;SDS011;61314;53.444;9.902;2023-12-22T01:06:55;11.90;;;2.40;;
3997;SDS011;61314;53.444;9.902;2023-12-22T01:09:22;15.50;;;2.50;;
3997;SDS011;61314;53.444;9.902;2023-12-22T01:11:49;6.00;;;1.60;;
3997;SDS011;61314;53.444;9.902;2023-12-22T01:14:16;5.03;;;2.33;;
3997;SDS011;61314;53.444;9.902;2023-12-22T01:16:43;7.63;;;1.85;;
3997;SDS011;61314;53.444;9.902;2023-12-22T01:19:10;11.02;;;1.75;;
3997;SDS011;61314;53.444;9.902;2023-12-22T01:21:38;6.90;;;2.67;;
3997;SDS011;61314;53.444;9.902;2023-12-22T01:24:05;12.57;;;2.22;;
3997;SDS011;61314;53.444;9.902;2023-12-22T01:26:32;13.55;;;2.30;;
3997;SDS011;61314;53.444;9.902;2023-12-22T01:28:59;8.57;;;1.73;;
3997;SDS011;61314;53.444;9.902;2023-12-22T01:31:26;21.02;;;3.28;;
3997;SDS011;61314;53.444;9.902;2023-12-22T01:33:53;12.38;;;3.10;;
3997;SDS011;61314;53.444;9.902;2023-12-22T01:36:21;17.70;;;2.78;;
3997;SDS011;61314;53.444;9.902;2023-12-22T01:38:48;11.55;;;2.47;;
3997;SDS011;61314;53.444;9.902;2023-12-22T01:41:15;11.75;;;2.60;;
3997;SDS011;61314;53.444;9.902;2023-12-22T01:43:42;14.02;;;2.67;;
3997;SDS011;61314;53.444;9.902;2023-12-22T01:46:10;10.50;;;2.30;;
3997;SDS011;61314;53.444;9.902;2023-12-22T01:48:38;16.58;;;2.38;;
3997;SDS011;61314;53.444;9.902;2023-12-22T01:51:05;13.93;;;3.05;;
3997;SDS011;61314;53.444;9.902;2023-12-22T01:53:34;4.63;;;2.00;;
3997;SDS011;61314;53.444;9.902;2023-12-22T01:56:05;8.48;;;2.20;;
3997;SDS011;61314;53.444;9.902;2023-12-22T01:58:33;15.95;;;2.70;;
3997;SDS011;61314;53.444;9.902;2023-12-22T02:01:01;16.02;;;2.40;;
3997;SDS011;61314;53.444;9.902;2023-12-22T02:03:29;7.20;;;2.03;;
3997;SDS011;61314;53.444;9.902;2023-12-22T02:05:57;18.38;;;2.28;;
3997;SDS011;61314;53.444;9.902;2023-12-22T02:08:24;11.43;;;2.25;;
3997;SDS011;61314;53.444;9.902;2023-12-22T02:10:53;11.70;;;2.80;;
3997;SDS011;61314;53.444;9.902;2023-12-22T02:13:20;12.57;;;2.05;;
3997;SDS011;61314;53.444;9.902;2023-12-22T02:15:48;14.65;;;2.17;;
3997;SDS011;61314;53.444;9.902;2023-12-22T02:18:18;11.48;;;1.67;;
3997;SDS011;61314;53.444;9.902;2023-12-22T02:20:46;9.52;;;1.95;;
3997;SDS011;61314;53.444;9.902;2023-12-22T02:23:14;4.90;;;2.35;;
3997;SDS011;61314;53.444;9.902;2023-12-22T02:25:41;12.10;;;1.50;;
3997;SDS011;61314;53.444;9.902;2023-12-22T02:28:09;11.00;;;1.80;;
3997;SDS011;61314;53.444;9.902;2023-12-22T02:33:10;6.15;;;1.92;;
3997;SDS011;61314;53.444;9.902;2023-12-22T02:35:39;14.50;;;2.17;;
3997;SDS011;61314;53.444;9.902;2023-12-22T02:38:07;7.32;;;1.80;;
3997;SDS011;61314;53.444;9.902;2023-12-22T02:40:35;18.35;;;2.55;;
3997;SDS011;61314;53.444;9.902;2023-12-22T02:43:03;9.27;;;2.40;;
3997;SDS011;61314;53.444;9.902;2023-12-22T02:45:31;14.65;;;2.45;;
3997;SDS011;61314;53.444;9.902;2023-12-22T02:47:59;13.65;;;2.50;;
3997;SDS011;61314;53.444;9.902;2023-12-22T02:50:26;16.50;;;3.83;;
3997;SDS011;61314;53.444;9.902;2023-12-22T02:52:53;12.15;;;2.20;;
3997;SDS011;61314;53.444;9.902;2023-12-22T02:55:20;16.13;;;2.65;;
3997;SDS011;61314;53.444;9.902;2023-12-22T02:57:48;18.05;;;3.30;;
3997;SDS011;61314;53.444;9.902;2023-12-22T03:00:15;14.13;;;2.92;;
3997;SDS011;61314;53.444;9.902;2023-12-22T03:02:42;14.57;;;2.78;;
3997;SDS011;61314;53.444;9.902;2023-12-22T03:05:09;23.83;;;2.95;;
3997;SDS011;61314;53.444;9.902;2023-12-22T03:07:37;19.75;;;2.40;;
3997;SDS011;61314;53.444;9.902;2023-12-22T03:10:04;19.05;;;3.60;;
3997;SDS011;61314;53.444;9.902;2023-12-22T03:12:31;18.27;;;2.90;;
3997;SDS011;61314;53.444;9.902;2023-12-22T03:14:58;3.85;;;1.20;;
3997;SDS011;61314;53.444;9.902;2023-12-22T03:17:25;4.32;;;1.40;;
3997;SDS011;61314;53.444;9.902;2023-12-22T03:19:53;7.30;;;1.70;;
3997;SDS011;61314;53.444;9.902;2023-12-22T03:22:20;2.22;;;1.52;;
3997;SDS011;61314;53.444;9.902;2023-12-22T03:24:47;7.65;;;2.05;;
3997;SDS011;61314;53.444;9.902;2023-12-22T03:27:14;7.93;;;1.83;;
3997;SDS011;61314;53.444;9.902;2023-12-22T03:29:44;1.20;;;0.90;;
3997;SDS011;61314;53.444;9.902;2023-12-22T03:32:11;5.57;;;1.05;;
3997;SDS011;61314;53.444;9.902;2023-12-22T03:34:38;6.70;;;1.15;;
3997;SDS011;61314;53.444;9.902;2023-12-22T03:37:05;4.10;;;1.13;;
3997;SDS011;61314;53.444;9.902;2023-12-22T03:39:32;6.05;;;1.13;;
3997;SDS011;61314;53.444;9.902;2023-12-22T03:41:59;1.95;;;0.65;;
3997;SDS011;61314;53.444;9.902;2023-12-22T03:44:26;4.03;;;1.50;;
3997;SDS011;61314;53.444;9.902;2023-12-22T03:46:54;7.95;;;1.33;;
3997;SDS011;61314;53.444;9.902;2023-12-22T03:49:22;9.18;;;1.05;;
3997;SDS011;61314;53.444;9.902;2023-12-22T03:51:49;2.67;;;1.20;;
3997;SDS011;61314;53.444;9.902;2023-12-22T03:54:16;4.38;;;0.90;;
3997;SDS011;61314;53.444;9.902;2023-12-22T03:56:43;6.38;;;1.17;;
3997;SDS011;61314;53.444;9.902;2023-12-22T03:59:11;4.47;;;1.45;;
3997;SDS011;61314;53.444;9.902;2023-12-22T04:01:39;9.00;;;1.42;;
3997;SDS011;61314;53.444;9.902;2023-12-22T04:04:06;4.88;;;1.23;;
3997;SDS011;61314;53.444;9.902;2023-12-22T04:06:37;4.47;;;1.30;;
3997;SDS011;61314;53.444;9.902;2023-12-22T04:09:05;9.45;;;1.70;;
3997;SDS011;61314;53.444;9.902;2023-12-22T04:11:32;6.28;;;1.90;;
3997;SDS011;61314;53.444;9.902;2023-12-22T04:14:04;9.30;;;2.13;;
3997;SDS011;61314;53.444;9.902;2023-12-22T04:16:32;16.63;;;2.20;;
3997;SDS011;61314;53.444;9.902;2023-12-22T04:18:59;9.55;;;2.25;;
3997;SDS011;61314;53.444;9.902;2023-12-22T04:21:26;5.78;;;1.38;;
3997;SDS011;61314;53.444;9.902;2023-12-22T04:23:54;20.75;;;2.58;;
3997;SDS011;61314;53.444;9.902;2023-12-22T04:26:21;16.45;;;2.67;;
3997;SDS011;61314;53.444;9.902;2023-12-22T04:28:48;12.88;;;2.25;;
3997;SDS011;61314;53.444;9.902;2023-12-22T04:31:15;8.63;;;2.40;;
3997;SDS011;61314;53.444;9.902;2023-12-22T04:33:42;7.85;;;1.52;;
3997;SDS011;61314;53.444;9.902;2023-12-22T04:36:09;14.48;;;2.83;;
3997;SDS011;61314;53.444;9.902;2023-12-22T04:38:37;13.07;;;2.20;;
3997;SDS011;61314;53.444;9.902;2023-12-22T04:41:04;8.60;;;2.35;;
3997;SDS011;61314;53.444;9.902;2023-12-22T04:43:31;11.50;;;1.80;;
3997;SDS011;61314;53.444;9.902;2023-12-22T04:45:58;12.00;;;1.70;;
3997;SDS011;61314;53.444;9.902;2023-12-22T04:48:25;14.60;;;2.38;;
3997;SDS011;61314;53.444;9.902;2023-12-22T04:50:52;10.70;;;2.25;;
3997;SDS011;61314;53.444;9.902;2023-12-22T04:53:20;8.57;;;1.67;;
3997;SDS011;61314;53.444;9.902;2023-12-22T04:55:47;12.90;;;1.90;;
3997;SDS011;61314;53.444;9.902;2023-12-22T04:58:14;12.45;;;3.10;;
3997;SDS011;61314;53.444;9.902;2023-12-22T05:00:41;6.55;;;1.70;;
3997;SDS011;61314;53.444;9.902;2023-12-22T05:03:08;12.48;;;2.60;;
3997;SDS011;61314;53.444;9.902;2023-12-22T05:05:36;12.85;;;2.45;;
3997;SDS011;61314;53.444;9.902;2023-12-22T05:08:03;20.40;;;2.45;;
3997;SDS011;61314;53.444;9.902;2023-12-22T05:10:30;18.38;;;2.50;;
3997;SDS011;61314;53.444;9.902;2023-12-22T05:12:57;13.15;;;2.45;;
3997;SDS011;61314;53.444;9.902;2023-12-22T05:15:24;6.22;;;2.40;;
3997;SDS011;61314;53.444;9.902;2023-12-22T05:17:52;15.13;;;3.00;;
3997;SDS011;61314;53.444;9.902;2023-12-22T05:20:20;13.20;;;2.17;;
3997;SDS011;61314;53.444;9.902;2023-12-22T05:22:47;14.27;;;2.25;;
3997;SDS011;61314;53.444;9.902;2023-12-22T05:25:14;11.73;;;2.00;;
3997;SDS011;61314;53.444;9.902;2023-12-22T05:27:41;9.38;;;2.17;;
3997;SDS011;61314;53.444;9.902;2023-12-22T05:30:09;9.73;;;1.85;;
3997;SDS011;61314;53.444;9.902;2023-12-22T05:32:37;16.13;;;3.33;;
3997;SDS011;61314;53.444;9.902;2023-12-22T05:35:04;13.50;;;2.58;;
3997;SDS011;61314;53.444;9.902;2023-12-22T05:37:31;10.63;;;1.83;;
3997;SDS011;61314;53.444;9.902;2023-12-22T05:39:58;6.72;;;1.85;;
3997;SDS011;61314;53.444;9.902;2023-12-22T05:42:26;12.88;;;1.70;;
3997;SDS011;61314;53.444;9.902;2023-12-22T05:44:53;9.38;;;1.73;;
3997;SDS011;61314;53.444;9.902;2023-12-22T05:47:20;10.35;;;1.92;;
3997;SDS011;61314;53.444;9.902;2023-12-22T05:49:47;10.48;;;1.85;;
3997;SDS011;61314;53.444;9.902;2023-12-22T05:52:14;9.73;;;1.92;;
3997;SDS011;61314;53.444;9.902;2023-12-22T05:54:41;14.57;;;1.55;;
3997;SDS011;61314;53.444;9.902;2023-12-22T05:57:08;8.18;;;1.42;;
3997;SDS011;61314;53.444;9.902;2023-12-22T05:59:36;9.45;;;2.33;;
3997;SDS011;61314;53.444;9.902;2023-12-22T06:02:03;12.48;;;1.88;;
3997;SDS011;61314;53.444;9.902;2023-12-22T06:04:30;9.50;;;1.67;;
3997;SDS011;61314;53.444;9.902;2023-12-22T06:06:57;13.48;;;2.38;;
3997;SDS011;61314;53.444;9.902;2023-12-22T06:09:24;7.57;;;1.98;;
3997;SDS011;61314;53.444;9.902;2023-12-22T06:11:51;12.23;;;1.55;;
3997;SDS011;61314;53.444;9.902;2023-12-22T06:14:19;15.40;;;1.98;;
3997;SDS011;61314;53.444;9.902;2023-12-22T06:16:46;17.15;;;1.85;;
3997;SDS011;61314;53.444;9.902;2023-12-22T06:19:13;11.77;;;2.17;;
3997;SDS011;61314;53.444;9.902;2023-12-22T06:21:41;15.23;;;1.95;;
3997;SDS011;61314;53.444;9.902;2023-12-22T06:24:08;7.75;;;1.90;;
3997;SDS011;61314;53.444;9.902;2023-12-22T06:26:35;26.08;;;2.55;;
3997;SDS011;61314;53.444;9.902;2023-12-22T06:29:03;13.57;;;3.25;;
3997;SDS011;61314;53.444;9.902;2023-12-22T06:31:30;10.85;;;2.17;;
3997;SDS011;61314;53.444;9.902;2023-12-22T06:33:57;18.70;;;3.08;;
3997;SDS011;61314;53.444;9.902;2023-12-22T06:36:29;14.43;;;2.97;;
3997;SDS011;61314;53.444;9.902;2023-12-22T06:38:56;4.22;;;1.73;;
3997;SDS011;61314;53.444;9.902;2023-12-22T06:41:27;17.67;;;2.75;;
3997;SDS011;61314;53.444;9.902;2023-12-22T06:43:55;10.82;;;1.60;;
3997;SDS011;61314;53.444;9.902;2023-12-22T06:46:24;14.70;;;1.95;;
3997;SDS011;61314;53.444;9.902;2023-12-22T06:48:55;12.68;;;2.30;;
3997;SDS011;61314;53.444;9.902;2023-12-22T06:51:24;5.78;;;1.73;;
3997;SDS011;61314;53.444;9.902;2023-12-22T06:53:52;18.00;;;2.50;;
3997;SDS011;61314;53.444;9.902;2023-12-22T06:56:21;15.77;;;3.15;;
3997;SDS011;61314;53.444;9.902;2023-12-22T06:58:48;12.25;;;2.85;;
3997;SDS011;61314;53.444;9.902;2023-12-22T07:01:29;14.35;;;3.47;;
3997;SDS011;61314;53.444;9.902;2023-12-22T07:03:58;13.38;;;2.90;;
3997;SDS011;61314;53.444;9.902;2023-12-22T07:06:27;23.40;;;2.85;;
3997;SDS011;61314;53.444;9.902;2023-12-22T07:11:23;19.67;;;3.10;;
3997;SDS011;61314;53.444;9.902;2023-12-22T07:14:00;16.38;;;2.80;;
3997;SDS011;61314;53.444;9.902;2023-12-22T07:16:27;11.00;;;2.22;;
3997;SDS011;61314;53.444;9.902;2023-12-22T07:18:54;23.85;;;3.65;;
3997;SDS011;61314;53.444;9.902;2023-12-22T07:21:22;14.88;;;3.33;;
3997;SDS011;61314;53.444;9.902;2023-12-22T07:23:49;23.60;;;6.38;;
3997;SDS011;61314;53.444;9.902;2023-12-22T07:26:16;17.67;;;3.63;;
3997;SDS011;61314;53.444;9.902;2023-12-22T07:28:44;25.98;;;5.78;;
3997;SDS011;61314;53.444;9.902;2023-12-22T07:31:13;25.98;;;4.25;;
3997;SDS011;61314;53.444;9.902;2023-12-22T07:33:41;25.75;;;4.25;;
3997;SDS011;61314;53.444;9.902;2023-12-22T07:36:08;16.05;;;3.47;;
3997;SDS011;61314;53.444;9.902;2023-12-22T07:38:35;22.67;;;2.95;;
3997;SDS011;61314;53.444;9.902;2023-12-22T07:41:05;20.27;;;4.63;;
3997;SDS011;61314;53.444;9.902;2023-12-22T07:43:32;26.30;;;3.88;;
3997;SDS011;61314;53.444;9.902;2023-12-22T07:46:00;25.27;;;3.63;;
3997;SDS011;61314;53.444;9.902;2023-12-22T07:48:28;17.33;;;3.42;;
3997;SDS011;61314;53.444;9.902;2023-12-22T07:50:55;17.40;;;4.38;;
3997;SDS011;61314;53.444;9.902;2023-12-22T07:53:22;16.45;;;3.05;;
3997;SDS011;61314;53.444;9.902;2023-12-22T07:55:49;8.70;;;2.80;;
3997;SDS011;61314;53.444;9.902;2023-12-22T07:58:16;19.50;;;2.65;;
3997;SDS011;61314;53.444;9.902;2023-12-22T08:00:44;25.85;;;2.70;;
3997;SDS011;61314;53.444;9.902;2023-12-22T08:03:12;13.90;;;3.40;;
3997;SDS011;61314;53.444;9.902;2023-12-22T08:05:39;15.65;;;2.80;;
3997;SDS011;61314;53.444;9.902;2023-12-22T08:08:07;18.65;;;2.30;;
3997;SDS011;61314;53.444;9.902;2023-12-22T08:10:35;25.95;;;4.00;;
3997;SDS011;61314;53.444;9.902;2023-12-22T08:13:02;11.43;;;2.92;;
3997;SDS011;61314;53.444;9.902;2023-12-22T08:15:29;39.70;;;6.03;;
3997;SDS011;61314;53.444;9.902;2023-12-22T08:18:02;13.73;;;3.03;;
3997;SDS011;61314;53.444;9.902;2023-12-22T08:20:30;13.43;;;3.13;;
3997;SDS011;61314;53.444;9.902;2023-12-22T08:23:03;14.07;;;3.25;;
3997;SDS011;61314;53.444;9.902;2023-12-22T08:25:37;14.95;;;4.65;;
3997;SDS011;61314;53.444;9.902;2023-12-22T08:28:05;14.05;;;1.88;;
3997;SDS011;61314;53.444;9.902;2023-12-22T08:30:33;15.90;;;2.63;;
3997;SDS011;61314;53.444;9.902;2023-12-22T08:33:00;8.32;;;2.20;;
3997;SDS011;61314;53.444;9.902;2023-12-22T08:35:28;13.75;;;2.70;;
3997;SDS011;61314;53.444;9.902;2023-12-22T08:37:55;8.40;;;2.85;;
3997;SDS011;61314;53.444;9.902;2023-12-22T08:40:24;20.52;;;3.20;;
3997;SDS011;61314;53.444;9.902;2023-12-22T08:42:54;19.95;;;3.22;;
3997;SDS011;61314;53.444;9.902;2023-12-22T08:45:26;20.52;;;3.72;;
3997;SDS011;61314;53.444;9.902;2023-12-22T08:47:56;32.33;;;3.92;;
3997;SDS011;61314;53.444;9.902;2023-12-22T08:50:24;12.63;;;3.63;;
3997;SDS011;61314;53.444;9.902;2023-12-22T08:52:52;12.88;;;2.17;;
3997;SDS011;61314;53.444;9.902;2023-12-22T08:55:19;24.23;;;4.88;;
3997;SDS011;61314;53.444;9.902;2023-12-22T08:57:46;20.27;;;3.38;;
3997;SDS011;61314;53.444;9.902;2023-12-22T09:00:24;12.85;;;3.00;;
3997;SDS011;61314;53.444;9.902;2023-12-22T09:02:52;17.85;;;2.90;;
3997;SDS011;61314;53.444;9.902;2023-12-22T09:05:20;15.68;;;2.50;;
3997;SDS011;61314;53.444;9.902;2023-12-22T09:07:48;7.20;;;2.75;;
3997;SDS011;61314;53.444;9.902;2023-12-22T09:10:16;17.92;;;2.58;;
3997;SDS011;61314;53.444;9.902;2023-12-22T09:12:44;17.27;;;2.85;;
3997;SDS011;61314;53.444;9.902;2023-12-22T09:15:11;22.52;;;4.57;;
3997;SDS011;61314;53.444;9.902;2023-12-22T09:17:39;17.80;;;2.20;;
3997;SDS011;61314;53.444;9.902;2023-12-22T09:20:10;13.57;;;2.75;;
3997;SDS011;61314;53.444;9.902;2023-12-22T09:22:37;14.50;;;3.20;;
3997;SDS011;61314;53.444;9.902;2023-12-22T09:25:04;11.57;;;2.30;;
3997;SDS011;61314;53.444;9.902;2023-12-22T09:27:32;10.60;;;2.42;;
3997;SDS011;61314;53.444;9.902;2023-12-22T09:29:59;23.92;;;3.05;;
3997;SDS011;61314;53.444;9.902;2023-12-22T09:32:26;8.73;;;1.73;;
3997;SDS011;61314;53.444;9.902;2023-12-22T09:34:55;8.25;;;2.85;;
3997;SDS011;61314;53.444;9.902;2023-12-22T09:37:25;18.23;;;2.92;;
3997;SDS011;61314;53.444;9.902;2023-12-22T09:39:52;15.38;;;2.75;;
3997;SDS011;61314;53.444;9.902;2023-12-22T09:42:21;15.18;;;2.78;;
3997;SDS011;61314;53.444;9.902;2023-12-22T09:44:48;15.30;;;2.97;;
3997;SDS011;61314;53.444;9.902;2023-12-22T09:47:16;15.43;;;2.80;;
3997;SDS011;61314;53.444;9.902;2023-12-22T09:49:44;17.10;;;2.88;;
3997;SDS011;61314;53.444;9.902;2023-12-22T09:52:13;11.95;;;2.85;;
3997;SDS011;61314;53.444;9.902;2023-12-22T09:54:40;16.30;;;4.07;;
3997;SDS011;61314;53.444;9.902;2023-12-22T09:57:08;17.35;;;3.10;;
3997;SDS011;61314;53.444;9.902;2023-12-22T09:59:50;11.85;;;2.70;;
3997;SDS011;61314;53.444;9.902;2023-12-22T10:02:18;21.52;;;3.00;;
3997;SDS011;61314;53.444;9.902;2023-12-22T10:04:46;14.35;;;2.53;;
3997;SDS011;61314;53.444;9.902;2023-12-22T10:07:14;24.45;;;3.80;;
3997;SDS011;61314;53.444;9.902;2023-12-22T10:09:41;24.85;;;3.78;;
3997;SDS011;61314;53.444;9.902;2023-12-22T10:12:09;17.98;;;2.65;;
3997;SDS011;61314;53.444;9.902;2023-12-22T10:14:38;20.33;;;3.22;;
3997;SDS011;61314;53.444;9.902;2023-12-22T10:17:06;18.45;;;3.45;;
3997;SDS011;61314;53.444;9.902;2023-12-22T10:19:33;18.27;;;2.50;;
3997;SDS011;61314;53.444;9.902;2023-12-22T10:22:01;23.45;;;3.70;;
3997;SDS011;61314;53.444;9.902;2023-12-22T10:27:05;19.20;;;3.30;;
3997;SDS011;61314;53.444;9.902;2023-12-22T10:29:32;15.88;;;3.00;;
3997;SDS011;61314;53.444;9.902;2023-12-22T10:32:00;23.65;;;3.55;;
3997;SDS011;61314;53.444;9.902;2023-12-22T10:34:30;17.05;;;2.70;;
3997;SDS011;61314;53.444;9.902;2023-12-22T10:36:58;20.58;;;3.75;;
3997;SDS011;61314;53.444;9.902;2023-12-22T10:39:29;26.77;;;3.65;;
3997;SDS011;61314;53.444;9.902;2023-12-22T10:41:57;24.50;;;3.70;;
3997;SDS011;61314;53.444;9.902;2023-12-22T10:44:24;13.00;;;2.60;;
3997;SDS011;61314;53.444;9.902;2023-12-22T10:46:52;5.93;;;1.83;;
3997;SDS011;61314;53.444;9.902;2023-12-22T10:49:21;7.40;;;1.52;;
3997;SDS011;61314;53.444;9.902;2023-12-22T10:51:49;9.05;;;1.60;;
3997;SDS011;61314;53.444;9.902;2023-12-22T10:54:17;6.97;;;1.45;;
3997;SDS011;61314;53.444;9.902;2023-12-22T10:56:44;5.40;;;1.42;;
3997;SDS011;61314;53.444;9.902;2023-12-22T10:59:12;8.48;;;1.30;;
3997;SDS011;61314;53.444;9.902;2023-12-22T11:01:39;10.27;;;2.20;;
3997;SDS011;61314;53.444;9.902;2023-12-22T11:04:07;4.38;;;1.15;;
3997;SDS011;61314;53.444;9.902;2023-12-22T11:06:36;5.70;;;1.50;;
3997;SDS011;61314;53.444;9.902;2023-12-22T11:09:07;6.20;;;1.48;;
3997;SDS011;61314;53.444;9.902;2023-12-22T11:11:39;8.73;;;1.90;;
3997;SDS011;61314;53.444;9.902;2023-12-22T11:14:07;7.30;;;1.90;;
3997;SDS011;61314;53.444;9.902;2023-12-22T11:16:34;8.35;;;1.65;;
3997;SDS011;61314;53.444;9.902;2023-12-22T11:19:03;6.97;;;1.15;;
3997;SDS011;61314;53.444;9.902;2023-12-22T11:21:30;8.88;;;1.90;;
3997;SDS011;61314;53.444;9.902;2023-12-22T11:23:58;7.40;;;1.55;;
3997;SDS011;61314;53.444;9.902;2023-12-22T11:26:26;14.23;;;2.13;;
3997;SDS011;61314;53.444;9.902;2023-12-22T11:28:54;12.10;;;3.33;;
3997;SDS011;61314;53.444;9.902;2023-12-22T11:31:21;13.50;;;2.58;;
3997;SDS011;61314;53.444;9.902;2023-12-22T11:33:50;9.45;;;2.05;;
3997;SDS011;61314;53.444;9.902;2023-12-22T11:36:30;6.25;;;1.98;;
3997;SDS011;61314;53.444;9.902;2023-12-22T11:38:58;5.63;;;1.80;;
3997;SDS011;61314;53.444;9.902;2023-12-22T11:41:26;8.38;;;2.00;;
3997;SDS011;61314;53.444;9.902;2023-12-22T11:43:54;28.80;;;2.40;;
3997;SDS011;61314;53.444;9.902;2023-12-22T11:46:23;10.60;;;2.20;;
3997;SDS011;61314;53.444;9.902;2023-12-22T11:48:50;17.00;;;3.13;;
3997;SDS011;61314;53.444;9.902;2023-12-22T11:51:18;13.57;;;2.25;;
3997;SDS011;61314;53.444;9.902;2023-12-22T11:53:47;11.52;;;3.00;;
3997;SDS011;61314;53.444;9.902;2023-12-22T11:56:14;25.35;;;2.90;;
3997;SDS011;61314;53.444;9.902;2023-12-22T11:58:44;15.10;;;2.55;;
3997;SDS011;61314;53.444;9.902;2023-12-22T12:01:19;13.57;;;3.72;;
3997;SDS011;61314;53.444;9.902;2023-12-22T12:03:53;9.30;;;1.80;;
3997;SDS011;61314;53.444;9.902;2023-12-22T12:08:57;12.15;;;2.78;;
3997;SDS011;61314;53.444;9.902;2023-12-22T12:14:13;10.35;;;1.73;;
3997;SDS011;61314;53.444;9.902;2023-12-22T12:16:41;9.75;;;2.17;;
3997;SDS011;61314;53.444;9.902;2023-12-22T12:19:09;21.55;;;2.97;;
3997;SDS011;61314;53.444;9.902;2023-12-22T12:21:39;11.60;;;2.72;;
3997;SDS011;61314;53.444;9.902;2023-12-22T12:24:06;18.00;;;2.38;;
3997;SDS011;61314;53.444;9.902;2023-12-22T12:26:33;19.63;;;2.60;;
3997;SDS011;61314;53.444;9.902;2023-12-22T12:29:01;23.83;;;1.98;;
3997;SDS011;61314;53.444;9.902;2023-12-22T12:31:35;14.23;;;2.38;;
3997;SDS011;61314;53.444;9.902;2023-12-22T12:34:09;20.02;;;3.15;;
3997;SDS011;61314;53.444;9.902;2023-12-22T12:36:38;16.50;;;3.38;;
3997;SDS011;61314;53.444;9.902;2023-12-22T12:39:10;12.00;;;1.98;;
3997;SDS011;61314;53.444;9.902;2023-12-22T12:41:41;14.93;;;3.25;;
3997;SDS011;61314;53.444;9.902;2023-12-22T12:44:10;5.90;;;1.52;;
3997;SDS011;61314;53.444;9.902;2023-12-22T12:46:38;9.13;;;2.00;;
3997;SDS011;61314;53.444;9.902;2023-12-22T12:49:06;3.75;;;1.10;;
3997;SDS011;61314;53.444;9.902;2023-12-22T12:51:41;11.60;;;1.75;;
3997;SDS011;61314;53.444;9.902;2023-12-22T12:54:10;17.13;;;2.40;;
3997;SDS011;61314;53.444;9.902;2023-12-22T12:56:40;6.28;;;1.88;;
3997;SDS011;61314;53.444;9.902;2023-12-22T12:59:08;9.73;;;1.95;;
3997;SDS011;61314;53.444;9.902;2023-12-22T13:01:39;13.93;;;1.83;;
3997;SDS011;61314;53.444;9.902;2023-12-22T13:04:07;8.15;;;2.17;;
3997;SDS011;61314;53.444;9.902;2023-12-22T13:06:34;8.68;;;2.13;;
3997;SDS011;61314;53.444;9.902;2023-12-22T13:09:02;9.40;;;2.45;;
3997;SDS011;61314;53.444;9.902;2023-12-22T13:11:29;15.77;;;2.55;;
3997;SDS011;61314;53.444;9.902;2023-12-22T13:13:57;12.02;;;2.35;;
3997;SDS011;61314;53.444;9.902;2023-12-22T13:16:25;6.65;;;1.70;;
3997;SDS011;61314;53.444;9.902;2023-12-22T13:18:52;11.02;;;2.33;;
3997;SDS011;61314;53.444;9.902;2023-12-22T13:21:20;14.98;;;3.33;;
3997;SDS011;61314;53.444;9.902;2023-12-22T13:23:47;12.23;;;2.30;;
3997;SDS011;61314;53.444;9.902;2023-12-22T13:26:18;13.15;;;2.40;;
3997;SDS011;61314;53.444;9.902;2023-12-22T13:28:46;8.48;;;1.80;;
3997;SDS011;61314;53.444;9.902;2023-12-22T13:31:13;11.38;;;2.30;;
3997;SDS011;61314;53.444;9.902;2023-12-22T13:33:41;9.18;;;2.42;;
3997;SDS011;61314;53.444;9.902;2023-12-22T13:36:08;12.30;;;1.83;;
3997;SDS011;61314;53.444;9.902;2023-12-22T13:38:35;9.43;;;1.67;;
3997;SDS011;61314;53.444;9.902;2023-12-22T13:41:02;8.95;;;1.98;;
3997;SDS011;61314;53.444;9.902;2023-12-22T13:43:30;10.95;;;3.35;;
3997;SDS011;61314;53.444;9.902;2023-12-22T13:45:57;13.02;;;2.45;;
3997;SDS011;61314;53.444;9.902;2023-12-22T13:48:24;13.27;;;2.85;;
3997;SDS011;61314;53.444;9.902;2023-12-22T13:50:58;10.23;;;2.50;;
3997;SDS011;61314;53.444;9.902;2023-12-22T13:53:26;8.20;;;2.33;;
3997;SDS011;61314;53.444;9.902;2023-12-22T13:55:53;15.68;;;3.55;;
3997;SDS011;61314;53.444;9.902;2023-12-22T13:58:20;11.80;;;2.00;;
3997;SDS011;61314;53.444;9.902;2023-12-22T14:00:48;15.40;;;2.00;;
3997;SDS011;61314;53.444;9.902;2023-12-22T14:03:15;16.52;;;2.78;;
3997;SDS011;61314;53.444;9.902;2023-12-22T14:05:43;13.77;;;2.30;;
3997;SDS011;61314;53.444;9.902;2023-12-22T14:08:10;20.65;;;3.60;;
3997;SDS011;61314;53.444;9.902;2023-12-22T14:10:37;11.65;;;2.50;;
3997;SDS011;61314;53.444;9.902;2023-12-22T14:13:11;20.10;;;3.30;;
3997;SDS011;61314;53.444;9.902;2023-12-22T14:15:38;12.77;;;2.50;;
3997;SDS011;61314;53.444;9.902;2023-12-22T14:18:11;13.38;;;2.38;;
3997;SDS011;61314;53.444;9.902;2023-12-22T14:20:38;9.57;;;2.38;;
3997;SDS011;61314;53.444;9.902;2023-12-22T14:23:06;20.38;;;4.93;;
3997;SDS011;61314;53.444;9.902;2023-12-22T14:25:36;11.88;;;2.63;;
3997;SDS011;61314;53.444;9.902;2023-12-22T14:28:03;22.85;;;2.65;;
3997;SDS011;61314;53.444;9.902;2023-12-22T14:30:30;13.38;;;2.33;;
3997;SDS011;61314;53.444;9.902;2023-12-22T14:32:57;8.07;;;3.45;;
3997;SDS011;61314;53.444;9.902;2023-12-22T14:35:25;9.15;;;2.30;;
3997;SDS011;61314;53.444;9.902;2023-12-22T14:37:52;14.27;;;2.33;;
3997;SDS011;61314;53.444;9.902;2023-12-22T14:40:20;10.43;;;2.70;;
3997;SDS011;61314;53.444;9.902;2023-12-22T14:42:47;18.65;;;7.32;;
3997;SDS011;61314;53.444;9.902;2023-12-22T14:45:14;20.13;;;4.40;;
3997;SDS011;61314;53.444;9.902;2023-12-22T14:47:41;20.35;;;2.70;;
3997;SDS011;61314;53.444;9.902;2023-12-22T14:50:09;11.93;;;3.47;;
3997;SDS011;61314;53.444;9.902;2023-12-22T14:52:36;11.32;;;3.50;;
3997;SDS011;61314;53.444;9.902;2023-12-22T14:55:03;8.90;;;2.38;;
3997;SDS011;61314;53.444;9.902;2023-12-22T14:57:30;11.02;;;3.10;;
3997;SDS011;61314;53.444;9.902;2023-12-22T14:59:59;20.17;;;3.63;;
3997;SDS011;61314;53.444;9.902;2023-12-22T15:02:27;12.80;;;3.25;;
3997;SDS011;61314;53.444;9.902;2023-12-22T15:04:55;20.67;;;2.90;;
3997;SDS011;61314;53.444;9.902;2023-12-22T15:07:26;9.70;;;2.67;;